createdAt,value
2023-04-07T00:00:48.260Z,27.40
2023-04-07T00:03:15.958Z,25.00
2023-04-07T00:05:49.368Z,36.13
2023-04-07T00:13:21.295Z,47.33
2023-04-07T00:15:48.754Z,36.03
2023-04-07T00:18:21.021Z,42.90
2023-04-07T00:20:48.224Z,33.00
2023-04-07T00:23:15.833Z,35.00
2023-04-07T00:25:43.180Z,28.63
2023-04-07T00:28:10.528Z,30.33
2023-04-07T00:30:38.920Z,37.03
2023-04-07T00:39:48.531Z,72.73
2023-04-07T00:42:16.624Z,74.13
2023-04-07T00:44:44.903Z,145.47
2023-04-07T00:47:18.078Z,97.43
2023-04-07T00:50:00.519Z,238.57
2023-04-07T00:52:35.573Z,174.27
2023-04-07T00:55:04.054Z,118.73
2023-04-07T01:02:52.441Z,96.27
2023-04-07T01:05:26.050Z,169.97
2023-04-07T01:08:15.376Z,205.63
2023-04-07T01:10:49.266Z,61.07
2023-04-07T01:13:24.135Z,151.40
2023-04-07T01:15:55.728Z,94.90
2023-04-07T01:25:39.077Z,109.37
2023-04-07T01:28:19.571Z,67.93
2023-04-07T01:30:49.888Z,145.63
2023-04-07T01:33:18.741Z,48.83
2023-04-07T01:35:52.517Z,125.77
2023-04-07T01:38:23.633Z,104.50
2023-04-07T01:46:14.650Z,175.23
2023-04-07T01:48:43.005Z,195.70
2023-04-07T01:51:16.879Z,65.63
2023-04-07T01:53:47.826Z,182.40
2023-04-07T01:56:16.180Z,221.83
2023-04-07T01:58:49.918Z,195.10
2023-04-07T02:01:19.204Z,288.47
2023-04-07T02:08:51.058Z,205.60
2023-04-07T02:11:21.148Z,223.77
2023-04-07T02:13:51.605Z,266.93
2023-04-07T02:16:20.762Z,423.37
2023-04-07T02:18:49.176Z,324.87
2023-04-07T02:21:17.968Z,294.20
2023-04-07T02:23:49.274Z,278.00
2023-04-07T02:32:07.848Z,315.63
2023-04-07T02:34:35.659Z,325.97
2023-04-07T02:37:03.277Z,360.50
2023-04-07T02:39:31.155Z,481.03
2023-04-07T02:42:04.070Z,355.60
2023-04-07T02:44:31.295Z,389.73
2023-04-07T02:47:04.041Z,293.63
2023-04-07T02:55:05.713Z,223.03
2023-04-07T02:57:33.056Z,290.33
2023-04-07T03:00:05.398Z,204.40
2023-04-07T03:02:32.998Z,289.07
2023-04-07T03:05:00.520Z,298.17
2023-04-07T03:07:31.543Z,114.40
2023-04-07T03:09:58.504Z,407.73
2023-04-07T03:17:26.098Z,104.03
2023-04-07T03:19:55.852Z,252.10
2023-04-07T03:22:23.288Z,308.60
2023-04-07T03:24:50.204Z,284.43
2023-04-07T03:27:21.375Z,235.90
2023-04-07T03:29:50.722Z,196.23
2023-04-07T03:32:25.767Z,197.70
2023-04-07T03:40:05.992Z,268.97
2023-04-07T03:42:32.877Z,220.80
2023-04-07T03:45:00.805Z,209.63
2023-04-07T03:47:28.571Z,174.63
2023-04-07T03:49:56.247Z,232.87
2023-04-07T03:52:23.568Z,116.93
2023-04-07T03:54:51.203Z,263.13
2023-04-07T04:05:24.418Z,297.57
2023-04-07T04:07:52.433Z,335.90
2023-04-07T04:10:22.388Z,253.73
2023-04-07T04:12:50.006Z,388.10
2023-04-07T04:15:23.675Z,299.07
2023-04-07T04:17:52.870Z,346.60
2023-04-07T04:20:21.695Z,295.30
2023-04-07T04:22:52.150Z,210.20
2023-04-07T04:30:03.027Z,379.17
2023-04-07T04:32:30.927Z,387.80
2023-04-07T04:35:04.538Z,225.47
2023-04-07T04:37:31.959Z,271.10
2023-04-07T04:39:59.429Z,442.37
2023-04-07T04:42:27.596Z,322.77
2023-04-07T04:44:55.852Z,396.37
2023-04-07T04:50:27.987Z,282.27
2023-04-07T04:52:58.388Z,321.33
2023-04-07T04:55:25.781Z,356.17
2023-04-07T04:57:53.192Z,353.47
2023-04-07T05:00:21.633Z,299.60
2023-04-07T05:02:49.286Z,319.67
2023-04-07T05:05:17.196Z,414.40
2023-04-07T05:12:40.098Z,402.10
2023-04-07T05:15:08.457Z,307.60
2023-04-07T05:17:36.577Z,262.17
2023-04-07T05:20:06.239Z,302.73
2023-04-07T05:22:33.550Z,212.57
2023-04-07T05:25:00.998Z,135.40
2023-04-07T05:27:28.261Z,289.30
2023-04-07T05:35:01.743Z,198.23
2023-04-07T05:37:29.106Z,366.17
2023-04-07T05:39:56.447Z,356.77
2023-04-07T05:42:23.719Z,233.83
2023-04-07T05:44:51.335Z,379.63
2023-04-07T05:47:18.564Z,210.80
2023-04-07T05:49:47.400Z,383.33
2023-04-07T05:52:16.206Z,308.63
2023-04-07T05:59:47.912Z,341.40
2023-04-07T06:02:16.465Z,282.23
2023-04-07T06:04:47.395Z,315.93
2023-04-07T06:07:14.854Z,231.17
2023-04-07T06:09:42.814Z,219.50
2023-04-07T06:12:11.705Z,295.83
2023-04-07T06:14:39.237Z,365.60
2023-04-07T06:25:06.530Z,365.43
2023-04-07T06:27:34.432Z,175.07
2023-04-07T06:30:01.776Z,163.70
2023-04-07T06:32:29.303Z,343.63
2023-04-07T06:34:56.728Z,248.43
2023-04-07T06:37:25.616Z,307.20
2023-04-07T06:39:53.153Z,432.90
2023-04-07T06:45:00.901Z,339.90
2023-04-07T06:47:28.868Z,229.07
2023-04-07T06:50:01.231Z,374.90
2023-04-07T06:52:28.560Z,429.43
2023-04-07T06:54:56.578Z,332.70
2023-04-07T06:57:27.168Z,466.67
2023-04-07T06:59:54.485Z,358.63
2023-04-07T07:07:31.594Z,283.57
2023-04-07T07:09:58.881Z,370.27
2023-04-07T07:12:26.123Z,276.37
2023-04-07T07:14:53.356Z,314.13
2023-04-07T07:17:20.759Z,270.73
2023-04-07T07:19:50.011Z,351.47
2023-04-07T07:22:20.487Z,381.33
2023-04-07T07:29:53.450Z,355.73
2023-04-07T07:32:20.895Z,407.50
2023-04-07T07:34:49.387Z,295.50
2023-04-07T07:37:16.960Z,276.70
2023-04-07T07:39:44.093Z,212.10
2023-04-07T07:42:11.379Z,276.20
2023-04-07T07:44:39.609Z,360.33
2023-04-07T07:49:44.614Z,436.03
2023-04-07T07:52:12.233Z,245.10
2023-04-07T07:54:39.595Z,202.83
2023-04-07T07:57:07.041Z,295.33
2023-04-07T07:59:35.084Z,291.23
2023-04-07T08:02:02.996Z,299.87
2023-04-07T08:04:30.890Z,454.33
2023-04-07T08:07:00.500Z,147.97
2023-04-07T08:14:32.935Z,363.77
2023-04-07T08:17:06.244Z,376.77
2023-04-07T08:19:33.889Z,258.03
2023-04-07T08:22:01.774Z,230.97
2023-04-07T08:24:29.819Z,305.43
2023-04-07T08:26:59.836Z,280.27
2023-04-07T08:29:31.185Z,255.70
2023-04-07T08:37:04.347Z,148.33
2023-04-07T08:39:35.136Z,238.57
2023-04-07T08:42:06.513Z,196.67
2023-04-07T08:44:36.197Z,201.67
2023-04-07T08:47:07.495Z,223.20
2023-04-07T08:49:41.233Z,35.93
2023-04-07T08:52:17.076Z,263.87
2023-04-07T08:54:45.167Z,158.17
2023-04-07T09:02:22.473Z,153.57
2023-04-07T09:04:50.326Z,47.77
2023-04-07T09:07:20.344Z,64.33
2023-04-07T09:09:48.253Z,38.97
2023-04-07T09:12:17.653Z,30.77
2023-04-07T09:14:47.331Z,30.80
2023-04-07T09:17:16.398Z,16.67
2023-04-07T09:27:17.737Z,42.13
2023-04-07T09:29:50.632Z,93.93
2023-04-07T09:32:39.082Z,32.93
2023-04-07T09:35:07.213Z,20.13
2023-04-07T09:37:36.208Z,17.53
2023-04-07T09:40:07.182Z,15.33
2023-04-07T09:42:37.602Z,13.77
2023-04-07T09:50:10.736Z,9.77
2023-04-07T09:52:52.806Z,29.37
2023-04-07T09:55:23.775Z,12.93
2023-04-07T09:57:56.057Z,12.57
2023-04-07T10:00:26.783Z,11.50
2023-04-07T10:02:55.034Z,9.43
2023-04-07T10:05:24.263Z,7.33
2023-04-07T10:12:58.535Z,8.77
2023-04-07T10:15:30.383Z,9.03
2023-04-07T10:18:02.722Z,8.90
2023-04-07T10:20:34.094Z,10.90
2023-04-07T10:23:11.954Z,9.17
2023-04-07T10:25:43.694Z,15.87
2023-04-07T10:28:20.937Z,9.57
2023-04-07T10:37:43.003Z,8.43
2023-04-07T10:40:34.718Z,9.27
2023-04-07T10:43:07.688Z,9.60
2023-04-07T10:46:01.784Z,6.50
2023-04-07T10:48:33.776Z,7.47
2023-04-07T10:51:19.604Z,7.63
2023-04-07T11:02:41.023Z,8.47
2023-04-07T11:05:23.457Z,6.97
2023-04-07T11:08:09.588Z,7.60
2023-04-07T11:10:50.239Z,10.43
2023-04-07T11:13:20.710Z,6.70
2023-04-07T11:15:51.919Z,6.57
2023-04-07T11:18:26.080Z,7.33
2023-04-07T11:26:18.819Z,5.23
2023-04-07T11:28:52.481Z,4.40
2023-04-07T11:31:28.589Z,4.90
2023-04-07T11:34:04.818Z,4.87
2023-04-07T11:36:39.735Z,4.30
2023-04-07T11:39:28.096Z,4.10
2023-04-07T11:42:01.663Z,3.90
2023-04-07T11:49:48.866Z,3.63
2023-04-07T11:52:19.557Z,3.33
2023-04-07T11:54:52.436Z,4.03
2023-04-07T11:57:30.597Z,3.87
2023-04-07T12:00:10.762Z,5.57
2023-04-07T12:02:45.231Z,5.17
